Time;durP1;ratioP1;P1;durP2;ratioP2;P2;SDS_P1;SDS_P2;PMS_P1;PMS_P2;Temp;Humidity;BMP_temperature;BMP_pressure;BME280_temperature;BME280_humidity;BME280_pressure;Samples;Min_cycle;Max_cycle;Signal;HPM_P1;HPM_P2
2021/03/04 00:02:20;;;;;;;49.20;27.47;;;3.40;99.90;;;;;;5000830;28;20183;-46
2021/03/04 00:04:45;;;;;;;52.30;28.33;;;3.40;99.90;;;;;;5002681;28;20218;-46
2021/03/04 00:07:11;;;;;;;50.73;26.77;;;3.30;99.90;;;;;;4980425;28;20185;-50
2021/03/04 00:09:36;;;;;;;60.93;30.27;;;3.20;99.90;;;;;;4975873;28;20196;-46
2021/03/04 00:12:02;;;;;;;54.53;29.10;;;3.20;99.90;;;;;;4995671;28;20694;-50
2021/03/04 00:14:28;;;;;;;45.73;25.80;;;3.20;99.90;;;;;;5000112;28;20252;-50
2021/03/04 00:16:54;;;;;;;52.10;30.03;;;3.10;99.90;;;;;;5005543;28;20184;-52
2021/03/04 00:19:19;;;;;;;49.47;27.40;;;3.10;99.90;;;;;;5003036;28;20172;-48
2021/03/04 00:21:45;;;;;;;53.43;28.60;;;3.00;99.90;;;;;;5006300;28;20374;-48
2021/03/04 00:24:10;;;;;;;53.80;28.80;;;3.00;99.90;;;;;;4987915;28;21002;-53
2021/03/04 00:26:36;;;;;;;46.23;26.87;;;3.00;99.90;;;;;;4996442;28;20218;-51
2021/03/04 00:29:02;;;;;;;44.77;26.77;;;3.00;99.90;;;;;;4997580;28;20184;-51
2021/03/04 00:31:28;;;;;;;45.27;25.10;;;2.90;99.90;;;;;;4997804;28;20339;-48
2021/03/04 00:33:53;;;;;;;45.27;24.33;;;2.90;99.90;;;;;;4995146;28;20254;-49
2021/03/04 00:36:19;;;;;;;52.10;23.70;;;2.90;99.90;;;;;;5004133;28;20204;-49
2021/03/04 00:38:44;;;;;;;42.13;21.87;;;2.90;99.90;;;;;;5001058;28;20258;-50
2021/03/04 00:41:10;;;;;;;38.73;21.73;;;2.80;99.90;;;;;;4984839;28;20187;-50
2021/03/04 00:43:35;;;;;;;37.23;22.40;;;2.80;99.90;;;;;;5006513;28;20292;-48
2021/03/04 00:46:02;;;;;;;31.63;18.37;;;2.80;99.90;;;;;;5020388;28;20212;-50
2021/03/04 00:48:27;;;;;;;32.00;18.10;;;2.80;99.90;;;;;;5003083;28;20266;-50
2021/03/04 00:50:53;;;;;;;39.77;20.20;;;2.70;99.90;;;;;;5004331;28;20187;-49
2021/03/04 00:53:20;;;;;;;36.00;19.27;;;2.60;99.90;;;;;;5006710;28;20491;-49
2021/03/04 00:55:45;;;;;;;34.20;19.50;;;2.60;99.90;;;;;;5004805;28;20211;-50
2021/03/04 00:58:11;;;;;;;33.80;19.03;;;2.60;99.90;;;;;;4978662;28;20206;-50
2021/03/04 01:00:36;;;;;;;25.37;15.13;;;2.60;99.90;;;;;;5004690;28;20181;-53
2021/03/04 01:03:02;;;;;;;20.20;12.13;;;2.60;99.90;;;;;;5002121;28;20711;-47
2021/03/04 01:05:27;;;;;;;20.47;12.07;;;2.50;99.90;;;;;;4996176;28;20319;-49
2021/03/04 01:07:53;;;;;;;17.57;11.30;;;2.50;99.90;;;;;;4984314;28;20181;-49
2021/03/04 01:10:25;;;;;;;17.50;9.83;;;2.50;99.90;;;;;;4980719;28;20180;-48
2021/03/04 01:12:50;;;;;;;17.67;8.83;;;2.50;99.90;;;;;;4988905;28;20191;-52
2021/03/04 01:15:18;;;;;;;13.33;8.67;;;2.40;99.90;;;;;;4993440;28;20970;-48
2021/03/04 01:17:44;;;;;;;13.60;8.77;;;2.40;99.90;;;;;;5001424;28;20202;-53
2021/03/04 01:20:14;;;;;;;12.10;8.27;;;2.40;99.90;;;;;;5001522;28;20210;-49
2021/03/04 01:22:40;;;;;;;16.33;9.03;;;2.40;99.90;;;;;;4999450;28;20239;-48
2021/03/04 01:25:07;;;;;;;11.03;7.73;;;2.40;99.90;;;;;;5001710;28;20227;-53
2021/03/04 01:27:32;;;;;;;14.87;7.50;;;2.40;99.90;;;;;;5003363;28;20187;-49
2021/03/04 01:29:58;;;;;;;11.13;7.80;;;2.40;99.90;;;;;;5000314;28;20211;-52
2021/03/04 01:32:23;;;;;;;10.97;7.10;;;2.40;99.90;;;;;;5015672;28;20873;-49
2021/03/04 01:34:49;;;;;;;16.53;6.67;;;2.40;99.90;;;;;;4996707;28;20240;-51
2021/03/04 01:37:15;;;;;;;11.37;6.80;;;2.40;99.90;;;;;;5001408;28;20191;-50
2021/03/04 01:39:40;;;;;;;18.03;7.53;;;2.40;99.90;;;;;;5003926;28;20193;-48
2021/03/04 01:42:06;;;;;;;9.00;6.10;;;2.30;99.90;;;;;;5000740;28;20207;-54
2021/03/04 01:44:32;;;;;;;9.73;6.53;;;2.30;99.90;;;;;;5000468;28;20221;-53
2021/03/04 01:46:58;;;;;;;16.30;7.47;;;2.30;99.90;;;;;;5000335;28;20274;-52
2021/03/04 01:49:24;;;;;;;11.93;6.83;;;2.30;99.90;;;;;;5005936;28;20241;-52
2021/03/04 01:51:49;;;;;;;10.23;6.50;;;2.30;99.90;;;;;;5005370;28;20191;-49
2021/03/04 01:54:17;;;;;;;11.80;6.43;;;2.40;99.90;;;;;;5000844;28;20187;-46
2021/03/04 01:56:43;;;;;;;11.23;6.00;;;2.40;99.90;;;;;;5010758;28;20186;-52
2021/03/04 01:59:08;;;;;;;12.87;6.87;;;2.40;99.90;;;;;;4994530;28;20191;-49
2021/03/04 02:05:17;;;;;;;10.43;7.00;;;2.40;99.90;;;;;;5016115;28;20842;-51
2021/03/04 02:08:04;;;;;;;11.57;6.23;;;2.40;99.90;;;;;;5015117;28;20206;-49
2021/03/04 02:10:35;;;;;;;7.87;5.03;;;2.40;99.90;;;;;;5015048;28;20220;-48
2021/03/04 02:13:13;;;;;;;9.30;5.33;;;2.40;99.90;;;;;;5017094;28;20190;-52
2021/03/04 02:15:57;;;;;;;10.30;5.57;;;2.40;99.90;;;;;;4991257;28;20215;-47
2021/03/04 02:18:26;;;;;;;7.33;5.17;;;2.40;99.90;;;;;;4997399;28;20188;-48
2021/03/04 02:21:30;;;;;;;9.30;6.17;;;2.40;99.90;;;;;;5020690;28;20198;-52
2021/03/04 02:24:13;;;;;;;10.53;5.90;;;2.50;99.90;;;;;;5006264;28;20281;-51
2021/03/04 02:27:01;;;;;;;9.40;6.30;;;2.50;99.90;;;;;;5005231;28;20220;-46
2021/03/04 02:29:27;;;;;;;10.90;6.03;;;2.50;99.90;;;;;;5005928;28;20897;-49
2021/03/04 02:31:56;;;;;;;10.97;5.87;;;2.50;99.90;;;;;;4988620;28;20245;-51
2021/03/04 02:34:24;;;;;;;8.00;6.13;;;2.50;99.90;;;;;;5005236;28;20188;-51
2021/03/04 02:36:50;;;;;;;9.97;6.40;;;2.60;99.90;;;;;;5005648;28;20222;-47
2021/03/04 02:39:17;;;;;;;11.37;6.37;;;2.60;99.90;;;;;;5016932;28;20381;-46
2021/03/04 02:41:44;;;;;;;13.97;7.77;;;2.60;99.90;;;;;;4997314;28;20274;-48
2021/03/04 02:44:11;;;;;;;8.60;6.47;;;2.60;99.90;;;;;;5003516;28;20999;-46
2021/03/04 02:46:38;;;;;;;8.50;5.90;;;2.60;99.90;;;;;;4989289;28;20223;-46
2021/03/04 02:49:05;;;;;;;9.07;6.17;;;2.70;99.90;;;;;;4993457;28;20271;-51
2021/03/04 02:51:32;;;;;;;12.03;6.93;;;2.70;99.90;;;;;;5003395;28;20199;-47
2021/03/04 02:53:59;;;;;;;10.40;6.27;;;2.70;99.90;;;;;;5002339;28;20204;-52
2021/03/04 02:56:25;;;;;;;9.63;6.57;;;2.70;99.90;;;;;;5004754;28;20329;-50
2021/03/04 02:58:53;;;;;;;6.80;5.57;;;2.80;99.90;;;;;;5017093;28;20192;-52
2021/03/04 03:01:21;;;;;;;9.47;6.07;;;2.80;99.90;;;;;;4987281;28;20274;-50
2021/03/04 03:03:51;;;;;;;9.77;6.07;;;2.80;99.90;;;;;;5005201;28;20199;-51
2021/03/04 03:06:18;;;;;;;8.43;5.83;;;2.80;99.90;;;;;;5014804;28;20318;-48
2021/03/04 03:08:47;;;;;;;10.67;6.73;;;2.90;99.90;;;;;;5015853;28;20257;-49
2021/03/04 03:11:17;;;;;;;9.43;6.43;;;2.90;99.90;;;;;;5005825;28;20210;-52
2021/03/04 03:13:46;;;;;;;7.40;5.07;;;2.90;99.90;;;;;;4999581;28;20242;-48
2021/03/04 03:16:12;;;;;;;10.40;5.80;;;2.90;99.90;;;;;;4991481;28;20445;-48
2021/03/04 03:18:37;;;;;;;7.70;6.07;;;2.90;99.90;;;;;;5004226;28;20226;-48
2021/03/04 03:21:03;;;;;;;9.53;5.43;;;2.90;99.90;;;;;;4992694;28;20644;-51
2021/03/04 03:23:29;;;;;;;9.03;5.97;;;3.00;99.90;;;;;;4996381;28;20684;-51
2021/03/04 03:25:54;;;;;;;9.43;6.10;;;3.00;99.90;;;;;;5005464;28;20222;-54
2021/03/04 03:28:20;;;;;;;9.33;5.63;;;3.00;99.90;;;;;;4997580;28;20177;-48
2021/03/04 03:30:45;;;;;;;6.80;5.33;;;3.00;99.90;;;;;;5003894;28;20637;-47
2021/03/04 03:33:16;;;;;;;9.30;5.40;;;3.00;99.90;;;;;;4979916;28;20181;-48
2021/03/04 03:35:43;;;;;;;8.83;4.97;;;3.10;99.90;;;;;;5000550;28;20223;-48
2021/03/04 03:38:09;;;;;;;6.40;4.60;;;3.10;99.90;;;;;;5004261;28;20186;-51
2021/03/04 03:40:37;;;;;;;5.73;5.13;;;3.10;99.90;;;;;;5012270;28;20504;-47
2021/03/04 03:43:06;;;;;;;5.70;4.07;;;3.10;99.90;;;;;;5002991;28;20191;-52
2021/03/04 03:45:40;;;;;;;5.40;4.60;;;3.10;99.90;;;;;;4997115;28;20327;-47
2021/03/04 03:48:13;;;;;;;7.67;4.33;;;3.10;99.90;;;;;;4985992;28;20621;-50
2021/03/04 03:50:41;;;;;;;7.27;4.73;;;3.10;99.90;;;;;;5000116;28;20250;-53
2021/03/04 03:53:07;;;;;;;9.77;4.80;;;3.10;99.90;;;;;;4996865;28;20652;-50
2021/03/04 03:55:33;;;;;;;6.83;4.30;;;3.10;99.90;;;;;;5003833;28;20212;-50
2021/03/04 03:58:00;;;;;;;6.10;4.10;;;3.20;99.90;;;;;;4999565;28;20188;-51
2021/03/04 04:00:26;;;;;;;5.27;4.03;;;3.20;99.90;;;;;;5010963;28;20358;-46
2021/03/04 04:02:59;;;;;;;6.27;3.73;;;3.20;99.90;;;;;;4998052;28;20764;-50
2021/03/04 04:05:25;;;;;;;4.07;3.63;;;3.20;99.90;;;;;;4987185;28;20207;-46
2021/03/04 04:07:54;;;;;;;6.27;3.87;;;3.20;99.90;;;;;;5000865;28;20242;-48
2021/03/04 04:10:22;;;;;;;5.10;3.93;;;3.20;99.90;;;;;;5005575;28;20191;-49
2021/03/04 04:12:48;;;;;;;6.63;3.63;;;3.20;99.90;;;;;;5000502;28;20267;-50
2021/03/04 04:15:13;;;;;;;4.57;3.67;;;3.20;99.90;;;;;;5011420;28;20363;-49
2021/03/04 04:17:39;;;;;;;5.17;4.00;;;3.20;99.90;;;;;;5011844;28;20275;-51
2021/03/04 04:20:06;;;;;;;3.77;3.23;;;3.20;99.90;;;;;;4988477;28;20185;-52
2021/03/04 04:22:32;;;;;;;4.90;3.27;;;3.30;99.90;;;;;;5004571;28;20180;-53
2021/03/04 04:24:58;;;;;;;4.43;3.17;;;3.30;99.90;;;;;;5002620;28;20215;-49
2021/03/04 04:27:25;;;;;;;4.73;3.93;;;3.30;99.90;;;;;;4996875;28;20196;-50
2021/03/04 04:29:51;;;;;;;4.13;3.67;;;3.30;99.90;;;;;;5003882;28;20282;-49
2021/03/04 04:32:16;;;;;;;4.57;3.90;;;3.30;99.90;;;;;;5018447;28;20238;-53
2021/03/04 04:34:42;;;;;;;6.10;3.50;;;3.30;99.90;;;;;;4989004;28;20263;-49
2021/03/04 04:37:07;;;;;;;6.00;4.07;;;3.30;99.90;;;;;;4999487;28;20268;-51
2021/03/04 04:39:33;;;;;;;4.67;3.30;;;3.30;99.90;;;;;;5011413;28;20667;-49
2021/03/04 04:41:58;;;;;;;8.07;3.93;;;3.40;99.90;;;;;;5010448;28;20185;-51
2021/03/04 04:44:24;;;;;;;7.37;4.03;;;3.40;99.90;;;;;;5007876;28;20250;-49
2021/03/04 04:46:50;;;;;;;6.57;3.87;;;3.40;99.90;;;;;;5013782;28;20246;-50
2021/03/04 04:49:15;;;;;;;4.23;2.97;;;3.40;99.90;;;;;;5007900;28;20187;-48
2021/03/04 04:51:40;;;;;;;5.00;3.27;;;3.40;99.90;;;;;;4991061;28;20207;-46
2021/03/04 04:54:06;;;;;;;4.10;3.37;;;3.40;99.90;;;;;;5006902;28;20180;-50
2021/03/04 04:56:31;;;;;;;4.53;3.37;;;3.40;99.90;;;;;;5009581;28;20199;-48
2021/03/04 04:58:57;;;;;;;7.43;4.13;;;3.30;99.90;;;;;;5017659;28;20187;-52
2021/03/04 05:01:23;;;;;;;5.13;3.90;;;3.40;99.90;;;;;;5003160;28;20326;-47
2021/03/04 05:03:48;;;;;;;4.77;3.53;;;3.40;99.90;;;;;;5011863;28;20228;-51
2021/03/04 05:06:14;;;;;;;7.87;3.77;;;3.40;99.90;;;;;;4984611;28;20213;-49
2021/03/04 05:08:39;;;;;;;3.33;3.03;;;3.40;99.90;;;;;;5002031;28;20195;-49
2021/03/04 05:11:05;;;;;;;3.50;3.00;;;3.40;99.90;;;;;;4993112;28;20660;-52
2021/03/04 05:13:30;;;;;;;3.60;3.30;;;3.40;99.90;;;;;;5002151;28;20636;-47
2021/03/04 05:15:56;;;;;;;3.67;3.20;;;3.40;99.90;;;;;;4996549;28;20800;-52
2021/03/04 05:18:21;;;;;;;5.63;3.10;;;3.40;99.90;;;;;;5003638;28;20227;-50
2021/03/04 05:20:47;;;;;;;7.50;3.63;;;3.40;99.90;;;;;;5010885;28;20171;-53
2021/03/04 05:23:12;;;;;;;5.33;3.30;;;3.50;99.90;;;;;;4984865;28;20924;-47
2021/03/04 05:25:38;;;;;;;4.47;3.70;;;3.50;99.90;;;;;;4996773;28;20580;-49
2021/03/04 05:28:03;;;;;;;5.17;3.30;;;3.50;99.90;;;;;;5017918;28;20679;-51
2021/03/04 05:30:29;;;;;;;3.60;3.10;;;3.50;99.90;;;;;;5011202;28;20196;-48
2021/03/04 05:32:54;;;;;;;4.83;2.73;;;3.50;99.90;;;;;;4998627;28;20220;-51
2021/03/04 05:35:20;;;;;;;7.03;3.30;;;3.50;99.90;;;;;;5005787;28;20192;-46
2021/03/04 05:37:46;;;;;;;4.90;3.27;;;3.50;99.90;;;;;;4982860;28;20193;-46
2021/03/04 05:40:11;;;;;;;4.63;3.20;;;3.50;99.90;;;;;;4996160;28;20290;-46
2021/03/04 05:42:42;;;;;;;4.87;3.40;;;3.50;99.90;;;;;;5003600;28;20196;-50
2021/03/04 05:45:10;;;;;;;3.83;3.53;;;3.50;99.90;;;;;;5003069;28;20309;-46
2021/03/04 05:47:38;;;;;;;8.60;3.27;;;3.50;99.90;;;;;;4985128;28;20193;-51
2021/03/04 05:50:06;;;;;;;4.67;3.60;;;3.50;99.90;;;;;;4996794;28;20177;-47
2021/03/04 05:52:37;;;;;;;4.13;3.00;;;3.50;99.90;;;;;;4980590;28;20337;-53
2021/03/04 05:55:05;;;;;;;5.47;2.90;;;3.60;99.90;;;;;;4998115;28;20221;-51
2021/03/04 05:57:31;;;;;;;3.50;2.47;;;3.60;99.90;;;;;;4991356;28;20619;-53
2021/03/04 05:59:57;;;;;;;5.93;2.60;;;3.60;99.90;;;;;;4999833;28;20566;-49
2021/03/04 06:02:23;;;;;;;4.00;2.77;;;3.60;99.90;;;;;;5010021;28;20181;-52
2021/03/04 06:04:49;;;;;;;4.93;2.80;;;3.60;99.90;;;;;;4999146;28;20307;-53
2021/03/04 06:07:15;;;;;;;7.57;3.17;;;3.60;99.90;;;;;;5006008;28;20215;-48
2021/03/04 06:09:41;;;;;;;5.30;2.97;;;3.60;99.90;;;;;;4986305;28;20177;-52
2021/03/04 06:12:07;;;;;;;3.17;2.67;;;3.60;99.90;;;;;;5000856;28;20183;-50
2021/03/04 06:14:34;;;;;;;6.57;2.90;;;3.70;99.90;;;;;;5010939;28;20223;-51
2021/03/04 06:17:16;;;;;;;5.70;3.10;;;3.70;99.90;;;;;;5003484;28;20452;-51
2021/03/04 06:20:03;;;;;;;3.67;2.90;;;3.70;99.90;;;;;;5004268;28;20563;-47
2021/03/04 06:22:31;;;;;;;6.30;2.60;;;3.70;99.90;;;;;;5005186;28;20190;-52
2021/03/04 06:24:59;;;;;;;4.87;3.30;;;3.70;99.90;;;;;;4988305;28;20212;-48
2021/03/04 06:27:26;;;;;;;5.23;2.40;;;3.70;99.90;;;;;;4997428;28;20226;-46
2021/03/04 06:29:52;;;;;;;4.77;3.03;;;3.70;99.90;;;;;;4987962;28;20242;-51
2021/03/04 06:32:22;;;;;;;3.57;2.60;;;3.80;99.90;;;;;;4993715;28;20185;-49
2021/03/04 06:35:02;;;;;;;6.73;2.57;;;3.80;99.90;;;;;;4996237;28;20245;-52
2021/03/04 06:37:29;;;;;;;6.23;2.60;;;3.80;99.90;;;;;;5005780;28;20199;-48
2021/03/04 06:39:54;;;;;;;4.40;2.60;;;3.80;99.90;;;;;;4973448;28;20184;-47
2021/03/04 06:42:20;;;;;;;5.33;2.60;;;3.80;99.90;;;;;;4996286;28;20195;-51
2021/03/04 06:44:47;;;;;;;4.97;2.80;;;3.90;99.90;;;;;;5002513;28;20212;-52
2021/03/04 06:47:39;;;;;;;4.27;2.20;;;3.90;99.90;;;;;;5005940;28;20231;-50
2021/03/04 06:50:05;;;;;;;3.30;2.87;;;3.90;99.90;;;;;;5002003;28;20196;-49
2021/03/04 06:52:32;;;;;;;3.73;3.23;;;3.90;99.90;;;;;;4989337;28;20247;-50
2021/03/04 06:55:12;;;;;;;7.93;3.17;;;3.90;99.90;;;;;;4976967;28;20213;-49
2021/03/04 06:57:37;;;;;;;4.43;2.43;;;4.00;99.90;;;;;;4995171;28;20196;-53
2021/03/04 07:00:05;;;;;;;3.60;2.67;;;4.00;99.90;;;;;;5010914;28;20188;-51
2021/03/04 07:02:31;;;;;;;6.47;2.87;;;4.00;99.90;;;;;;5004404;28;20203;-53
2021/03/04 07:05:01;;;;;;;9.00;3.13;;;4.00;99.90;;;;;;5014628;28;20212;-48
2021/03/04 07:07:28;;;;;;;8.13;2.63;;;4.00;99.90;;;;;;5007714;28;20191;-51
2021/03/04 07:09:56;;;;;;;4.37;2.70;;;4.00;99.90;;;;;;4984642;28;20235;-45
2021/03/04 07:12:23;;;;;;;3.90;2.67;;;4.10;99.90;;;;;;4999532;28;20506;-49
2021/03/04 07:14:50;;;;;;;6.23;2.43;;;4.10;99.90;;;;;;4995603;28;20681;-51
2021/03/04 07:17:17;;;;;;;2.83;2.50;;;4.10;99.90;;;;;;4998597;28;20747;-46
2021/03/04 07:19:49;;;;;;;7.07;2.23;;;4.10;99.90;;;;;;4994847;28;20197;-53
2021/03/04 07:22:19;;;;;;;8.50;2.40;;;4.10;99.90;;;;;;4991348;28;20217;-49
2021/03/04 07:24:46;;;;;;;4.03;2.20;;;4.20;99.90;;;;;;4989271;28;20196;-50
2021/03/04 07:27:14;;;;;;;3.63;2.20;;;4.20;99.90;;;;;;4997834;28;20204;-48
2021/03/04 07:29:41;;;;;;;3.13;2.17;;;4.20;99.90;;;;;;5001402;28;20176;-52
2021/03/04 07:32:07;;;;;;;4.97;2.10;;;4.20;99.90;;;;;;5000278;28;20203;-47
2021/03/04 07:34:35;;;;;;;4.30;2.57;;;4.20;99.90;;;;;;4998296;28;20300;-49
2021/03/04 07:37:01;;;;;;;9.10;2.80;;;4.20;99.90;;;;;;4990490;28;20370;-52
2021/03/04 07:39:32;;;;;;;2.57;2.37;;;4.30;99.90;;;;;;4997415;28;20884;-49
2021/03/04 07:41:58;;;;;;;3.93;2.20;;;4.30;99.90;;;;;;4973938;28;20252;-53
2021/03/04 07:44:25;;;;;;;6.70;2.50;;;4.30;99.90;;;;;;5005057;28;20275;-48
2021/03/04 07:46:53;;;;;;;3.97;2.30;;;4.30;99.90;;;;;;4975160;28;20212;-53
2021/03/04 07:49:39;;;;;;;5.37;2.20;;;4.40;99.90;;;;;;4976123;28;20288;-48
2021/03/04 07:52:24;;;;;;;6.63;2.40;;;4.40;99.90;;;;;;4998751;28;20188;-47
2021/03/04 07:54:51;;;;;;;7.27;2.60;;;4.40;99.90;;;;;;4990438;28;20212;-49
2021/03/04 07:57:19;;;;;;;3.23;2.17;;;4.40;99.90;;;;;;4972017;28;20650;-49
2021/03/04 07:59:55;;;;;;;7.23;2.20;;;4.40;99.90;;;;;;4991426;28;20172;-50
2021/03/04 08:02:32;;;;;;;4.67;2.40;;;4.50;99.90;;;;;;4998887;28;20188;-51
2021/03/04 08:05:05;;;;;;;5.80;2.50;;;4.50;99.90;;;;;;4991544;28;20204;-52
2021/03/04 08:07:31;;;;;;;3.80;2.17;;;4.50;99.90;;;;;;5002847;28;20177;-49
2021/03/04 08:10:10;;;;;;;3.03;1.87;;;4.50;99.90;;;;;;4996237;28;20187;-47
2021/03/04 08:12:51;;;;;;;4.77;2.13;;;4.60;99.90;;;;;;4982656;28;20192;-51
2021/03/04 08:15:18;;;;;;;5.40;2.77;;;4.60;99.90;;;;;;4996664;28;20244;-50
2021/03/04 08:17:44;;;;;;;4.73;2.47;;;4.60;99.90;;;;;;4998060;28;21099;-48
2021/03/04 08:20:16;;;;;;;6.37;2.53;;;4.60;99.90;;;;;;4991757;28;20191;-49
2021/03/04 08:22:47;;;;;;;3.10;2.30;;;4.60;99.90;;;;;;4984589;28;20924;-48
2021/03/04 08:25:22;;;;;;;8.73;2.70;;;4.70;99.90;;;;;;4993863;28;20691;-49
2021/03/04 08:27:50;;;;;;;3.00;1.90;;;4.60;99.90;;;;;;4979985;28;20283;-53
2021/03/04 08:30:28;;;;;;;5.13;2.47;;;4.70;99.90;;;;;;4999960;28;20199;-52
2021/03/04 08:32:58;;;;;;;3.93;2.20;;;4.70;99.90;;;;;;5000865;28;20177;-51
2021/03/04 08:35:25;;;;;;;2.47;2.23;;;4.70;99.90;;;;;;4990774;28;20220;-50
2021/03/04 08:38:08;;;;;;;4.30;2.60;;;4.70;99.90;;;;;;4998140;28;20323;-48
2021/03/04 08:40:42;;;;;;;6.90;2.63;;;4.80;99.90;;;;;;4991806;28;20204;-53
2021/03/04 08:43:19;;;;;;;2.40;2.20;;;4.80;99.90;;;;;;4989181;28;20287;-51
2021/03/04 08:45:49;;;;;;;6.50;2.53;;;4.80;99.90;;;;;;4990769;28;20246;-53
2021/03/04 08:48:14;;;;;;;5.50;2.47;;;4.80;99.90;;;;;;5006624;28;20226;-51
2021/03/04 08:50:46;;;;;;;4.80;2.50;;;4.90;99.90;;;;;;4988601;28;20808;-53
2021/03/04 08:53:20;;;;;;;5.13;2.30;;;4.90;99.90;;;;;;5003628;28;20181;-48
2021/03/04 08:55:50;;;;;;;4.47;2.50;;;4.90;99.90;;;;;;4991799;28;20200;-50
2021/03/04 08:58:16;;;;;;;6.37;2.50;;;4.90;99.90;;;;;;5008338;28;20238;-51
2021/03/04 09:00:59;;;;;;;5.27;2.80;;;4.90;99.90;;;;;;4976212;28;20195;-50
2021/03/04 09:03:26;;;;;;;3.33;2.30;;;4.90;99.90;;;;;;5005496;28;20267;-52
2021/03/04 09:06:12;;;;;;;7.90;2.37;;;4.90;99.90;;;;;;4998889;28;20226;-49
2021/03/04 09:08:43;;;;;;;4.53;2.70;;;5.00;99.90;;;;;;4987462;28;20185;-52
2021/03/04 09:11:29;;;;;;;4.50;2.40;;;5.00;99.90;;;;;;4987638;28;20195;-51
2021/03/04 09:14:08;;;;;;;3.10;2.20;;;5.00;99.90;;;;;;5003590;28;20177;-51
2021/03/04 09:16:37;;;;;;;7.27;3.07;;;5.10;99.90;;;;;;4985346;28;20204;-52
2021/03/04 09:19:03;;;;;;;9.10;2.60;;;5.10;99.90;;;;;;4988169;28;20272;-51
2021/03/04 09:21:28;;;;;;;7.93;2.60;;;5.20;99.90;;;;;;5001587;28;20263;-53
2021/03/04 09:23:54;;;;;;;3.77;2.53;;;5.10;99.90;;;;;;5001642;28;20215;-50
2021/03/04 09:26:19;;;;;;;7.03;2.50;;;5.10;99.90;;;;;;5002595;28;20279;-50
2021/03/04 09:28:45;;;;;;;5.43;2.17;;;5.20;99.90;;;;;;4993750;28;20177;-53
2021/03/04 09:31:15;;;;;;;4.40;2.50;;;5.20;99.90;;;;;;4994535;28;20212;-52
2021/03/04 09:33:42;;;;;;;5.17;2.30;;;5.20;99.90;;;;;;4996800;28;20979;-53
2021/03/04 09:36:07;;;;;;;4.03;2.30;;;5.20;99.90;;;;;;5006227;28;20603;-49
2021/03/04 09:38:35;;;;;;;3.63;2.57;;;5.30;99.90;;;;;;4998668;28;20193;-52
2021/03/04 09:41:27;;;;;;;3.07;2.10;;;5.30;99.90;;;;;;5005169;28;20199;-47
2021/03/04 09:44:01;;;;;;;4.23;2.07;;;5.40;99.90;;;;;;4993117;28;21153;-48
2021/03/04 09:46:40;;;;;;;4.93;2.23;;;5.40;99.90;;;;;;4999361;28;20557;-49
2021/03/04 09:49:16;;;;;;;8.20;2.83;;;5.40;99.90;;;;;;4993302;28;20185;-49
2021/03/04 09:51:45;;;;;;;10.40;2.60;;;5.50;99.90;;;;;;4998524;28;20181;-52
2021/03/04 09:54:22;;;;;;;7.67;3.20;;;5.50;99.90;;;;;;4988450;28;20794;-46
2021/03/04 09:56:47;;;;;;;11.47;3.30;;;5.50;99.90;;;;;;4993198;28;20185;-49
2021/03/04 09:59:17;;;;;;;7.30;3.17;;;5.50;99.90;;;;;;4994649;28;20195;-47
2021/03/04 10:01:43;;;;;;;8.93;2.93;;;5.50;99.90;;;;;;4984281;28;20182;-46
2021/03/04 10:04:08;;;;;;;4.93;2.60;;;5.50;99.90;;;;;;4980612;28;20197;-48
2021/03/04 10:06:38;;;;;;;3.70;2.40;;;5.50;99.90;;;;;;4997638;28;20196;-53
2021/03/04 10:09:07;;;;;;;12.53;3.50;;;5.60;99.90;;;;;;4999545;28;20234;-47
2021/03/04 10:11:37;;;;;;;7.63;3.00;;;5.60;99.90;;;;;;5002264;28;20271;-47
2021/03/04 10:14:10;;;;;;;8.60;2.60;;;5.60;99.90;;;;;;4987392;28;20288;-46
2021/03/04 10:16:36;;;;;;;6.40;2.60;;;5.70;99.90;;;;;;5009817;28;20705;-48
2021/03/04 10:19:02;;;;;;;5.07;2.40;;;5.70;99.90;;;;;;4991109;28;20232;-53
2021/03/04 10:21:28;;;;;;;4.77;2.23;;;5.70;99.90;;;;;;5004531;28;20299;-52
2021/03/04 10:23:54;;;;;;;5.97;2.63;;;5.70;99.90;;;;;;4986142;28;20794;-52
2021/03/04 10:26:19;;;;;;;9.00;2.53;;;5.70;99.90;;;;;;4998380;28;20227;-51
2021/03/04 10:28:45;;;;;;;4.00;2.20;;;5.80;99.90;;;;;;4996543;28;20184;-49
2021/03/04 10:31:10;;;;;;;8.17;2.60;;;5.80;99.90;;;;;;5003096;28;20200;-53
2021/03/04 10:33:36;;;;;;;6.30;2.40;;;5.80;99.90;;;;;;5004282;28;20184;-51
2021/03/04 10:36:02;;;;;;;8.17;3.10;;;5.80;99.90;;;;;;4983477;28;20216;-48
2021/03/04 10:38:27;;;;;;;8.87;2.47;;;5.90;99.90;;;;;;4990332;28;20198;-52
2021/03/04 10:40:53;;;;;;;5.33;2.20;;;5.90;99.90;;;;;;4989365;28;20193;-51
2021/03/04 10:43:19;;;;;;;5.00;2.27;;;5.90;99.90;;;;;;5004488;28;20180;-50
2021/03/04 10:45:44;;;;;;;8.18;2.42;;;5.90;99.90;;;;;;4978609;28;488282;-47
2021/03/04 10:48:11;;;;;;;12.13;2.97;;;6.00;99.90;;;;;;5002883;28;20850;-45
2021/03/04 10:50:37;;;;;;;11.57;2.87;;;6.00;99.90;;;;;;4985783;28;20246;-49
2021/03/04 10:53:02;;;;;;;6.50;2.20;;;6.00;99.90;;;;;;4997777;28;20547;-51
2021/03/04 10:55:29;;;;;;;10.20;2.70;;;6.00;99.90;;;;;;4993607;28;20559;-51
2021/03/04 10:57:55;;;;;;;9.10;2.53;;;6.00;99.90;;;;;;4994369;28;20264;-47
2021/03/04 11:00:21;;;;;;;6.17;2.17;;;6.00;99.90;;;;;;5004889;28;20304;-46
2021/03/04 11:02:46;;;;;;;2.87;2.10;;;6.10;99.90;;;;;;4995852;28;20823;-48
2021/03/04 11:05:12;;;;;;;4.83;2.23;;;6.10;99.90;;;;;;5005073;28;20215;-51
2021/03/04 11:07:37;;;;;;;6.60;2.60;;;6.20;99.90;;;;;;4980641;28;20220;-52
2021/03/04 11:10:06;;;;;;;6.37;2.60;;;6.30;99.90;;;;;;5002548;28;20177;-50
2021/03/04 11:12:32;;;;;;;5.20;2.13;;;6.30;99.90;;;;;;4984136;28;20201;-46
2021/03/04 11:14:59;;;;;;;5.93;2.40;;;6.40;99.90;;;;;;4992167;28;20920;-51
2021/03/04 11:17:24;;;;;;;5.77;2.60;;;6.40;99.90;;;;;;4991599;28;20260;-49
2021/03/04 11:19:50;;;;;;;7.70;2.20;;;6.40;99.90;;;;;;5000950;28;20554;-45
2021/03/04 11:22:17;;;;;;;7.70;2.43;;;6.40;99.90;;;;;;4990450;28;20197;-51
2021/03/04 11:24:46;;;;;;;6.93;2.07;;;6.40;99.90;;;;;;4992398;28;20282;-48
2021/03/04 11:27:12;;;;;;;8.60;2.77;;;6.40;99.90;;;;;;4999933;28;20196;-49
2021/03/04 11:29:37;;;;;;;4.27;2.07;;;6.50;99.90;;;;;;5001087;28;20184;-52
2021/03/04 11:32:03;;;;;;;7.70;2.83;;;6.50;99.90;;;;;;4999109;28;20195;-46
2021/03/04 11:34:29;;;;;;;7.27;2.43;;;6.40;99.90;;;;;;5002663;28;20205;-51
2021/03/04 11:36:54;;;;;;;8.10;2.67;;;6.40;99.90;;;;;;4998148;28;20177;-51
2021/03/04 11:39:20;;;;;;;10.30;3.23;;;6.40;99.90;;;;;;4979421;28;20207;-50
2021/03/04 11:41:45;;;;;;;8.70;2.90;;;6.40;99.90;;;;;;5001436;28;20193;-49
2021/03/04 11:44:13;;;;;;;7.87;2.93;;;6.30;99.90;;;;;;4993341;28;20265;-49
2021/03/04 11:46:39;;;;;;;8.67;3.30;;;6.40;99.90;;;;;;4996588;28;20208;-50
2021/03/04 11:49:05;;;;;;;4.87;2.83;;;6.40;99.90;;;;;;5001682;28;20199;-50
2021/03/04 11:51:31;;;;;;;6.40;3.10;;;6.40;99.90;;;;;;5004367;28;20172;-50
2021/03/04 11:53:57;;;;;;;7.97;3.20;;;6.40;99.90;;;;;;4988237;28;20181;-51
2021/03/04 11:56:23;;;;;;;3.97;3.07;;;6.50;99.90;;;;;;4994937;28;20299;-50
2021/03/04 11:58:50;;;;;;;7.13;3.10;;;6.50;99.90;;;;;;4986414;28;20197;-53
2021/03/04 12:01:16;;;;;;;6.27;3.63;;;6.50;99.90;;;;;;4991191;28;20267;-54
2021/03/04 12:03:41;;;;;;;4.83;2.77;;;6.50;99.90;;;;;;4998600;28;20264;-50
2021/03/04 12:06:07;;;;;;;7.60;3.40;;;6.50;99.90;;;;;;4993774;28;20295;-50
2021/03/04 12:08:32;;;;;;;7.57;2.97;;;6.50;99.90;;;;;;4989258;28;20204;-46
2021/03/04 12:10:58;;;;;;;8.07;3.80;;;6.50;99.90;;;;;;4999535;28;20182;-48
2021/03/04 12:13:30;;;;;;;7.20;3.83;;;6.50;99.90;;;;;;5001160;28;20205;-50
2021/03/04 12:15:56;;;;;;;6.27;4.63;;;6.50;99.90;;;;;;4985769;28;20244;-50
2021/03/04 12:18:22;;;;;;;11.77;3.87;;;6.50;99.90;;;;;;4989240;28;20204;-46
2021/03/04 12:20:49;;;;;;;7.73;4.23;;;6.50;99.90;;;;;;5003943;28;20183;-48
2021/03/04 12:23:15;;;;;;;7.07;3.93;;;6.50;99.90;;;;;;4986425;28;20192;-50
2021/03/04 12:25:40;;;;;;;7.13;3.47;;;6.60;99.90;;;;;;4987312;28;20243;-48
2021/03/04 12:28:06;;;;;;;5.63;3.43;;;6.60;99.90;;;;;;4981240;28;20186;-49
2021/03/04 12:30:32;;;;;;;12.30;3.63;;;6.60;99.90;;;;;;4985343;28;20184;-46
2021/03/04 12:32:57;;;;;;;8.77;3.93;;;6.60;99.90;;;;;;4997853;28;20212;-50
2021/03/04 12:35:23;;;;;;;9.33;4.47;;;6.70;99.90;;;;;;4992314;28;20485;-45
2021/03/04 12:37:48;;;;;;;8.27;3.40;;;6.80;99.90;;;;;;5001615;28;20826;-46
2021/03/04 12:40:15;;;;;;;8.53;3.47;;;6.80;99.90;;;;;;4980124;28;20200;-46
2021/03/04 12:42:40;;;;;;;9.97;3.87;;;6.70;99.90;;;;;;5004813;28;20551;-49
2021/03/04 12:45:06;;;;;;;5.67;3.73;;;6.70;99.90;;;;;;4981006;28;20224;-50
2021/03/04 12:47:32;;;;;;;10.60;4.33;;;6.70;99.90;;;;;;5003506;28;20192;-48
2021/03/04 12:50:01;;;;;;;9.10;3.97;;;6.70;99.90;;;;;;5002320;28;20726;-52
2021/03/04 12:52:27;;;;;;;6.63;3.30;;;6.70;99.90;;;;;;4997651;28;20191;-48
2021/03/04 12:54:52;;;;;;;9.50;3.57;;;6.70;99.90;;;;;;5002823;28;20199;-51
2021/03/04 12:57:18;;;;;;;4.27;2.97;;;6.70;99.90;;;;;;4982080;28;20243;-48
2021/03/04 12:59:43;;;;;;;8.40;3.43;;;6.70;99.90;;;;;;4987826;28;20178;-48
2021/03/04 13:02:09;;;;;;;11.83;3.60;;;6.70;99.90;;;;;;4986916;28;20530;-47